Time;durP1;ratioP1;P1;durP2;ratioP2;P2;SDS_P1;SDS_P2;PMS_P1;PMS_P2;Temp;Humidity;BMP_temperature;BMP_pressure;BME280_temperature;BME280_humidity;BME280_pressure;Samples;Min_cycle;Max_cycle;Signal;HPM_P1;HPM_P2
2022/05/31 00:01:51;;;;;;;3.00;2.47;;;11.40;99.90;;;;;;5019804;28;20454;-69
2022/05/31 00:04:18;;;;;;;3.47;2.83;;;11.50;99.90;;;;;;5018469;28;20439;-69
2022/05/31 00:06:45;;;;;;;4.30;3.90;;;11.60;99.90;;;;;;5014365;28;20835;-69
2022/05/31 00:09:12;;;;;;;2.83;2.50;;;11.60;99.90;;;;;;5014426;28;20796;-70
2022/05/31 00:11:41;;;;;;;5.10;4.00;;;11.50;99.90;;;;;;5024327;28;20491;-70
2022/05/31 00:14:08;;;;;;;4.73;3.50;;;11.50;99.90;;;;;;5010024;28;20556;-71
2022/05/31 00:16:36;;;;;;;4.27;2.97;;;11.50;99.90;;;;;;5021384;28;20511;-70
2022/05/31 00:19:03;;;;;;;3.83;3.50;;;11.50;99.90;;;;;;5017081;28;20460;-71
2022/05/31 00:21:38;;;;;;;4.97;2.50;;;11.50;99.90;;;;;;5012679;28;20509;-71
2022/05/31 00:24:06;;;;;;;8.17;3.00;;;11.60;99.90;;;;;;5014767;28;20585;-71
2022/05/31 00:26:33;;;;;;;3.60;3.30;;;11.60;99.90;;;;;;5015213;28;20871;-71
2022/05/31 00:29:00;;;;;;;4.90;3.07;;;11.60;99.90;;;;;;5013125;28;20515;-72
2022/05/31 00:31:26;;;;;;;4.10;2.77;;;11.50;99.90;;;;;;5014712;28;20973;-71
2022/05/31 00:33:55;;;;;;;3.70;3.07;;;11.30;99.90;;;;;;5016889;28;20828;-70
2022/05/31 00:36:22;;;;;;;3.20;2.90;;;11.10;99.90;;;;;;5012249;28;20460;-71
2022/05/31 00:38:49;;;;;;;8.97;2.83;;;11.00;99.90;;;;;;5005716;28;20490;-72
2022/05/31 00:41:26;;;;;;;2.57;2.37;;;10.90;99.90;;;;;;5017097;28;21059;-70
2022/05/31 00:43:59;;;;;;;5.07;4.17;;;10.80;99.90;;;;;;5019005;28;20687;-70
2022/05/31 00:46:30;;;;;;;6.03;3.83;;;10.90;99.90;;;;;;5011591;28;20788;-71
2022/05/31 00:49:02;;;;;;;4.50;3.27;;;11.00;99.90;;;;;;5013697;28;20437;-71
2022/05/31 00:51:38;;;;;;;7.50;3.03;;;11.10;99.90;;;;;;5020459;28;20868;-71
2022/05/31 00:54:08;;;;;;;3.40;3.00;;;11.00;99.90;;;;;;5014029;28;20510;-70
2022/05/31 00:56:36;;;;;;;9.10;3.77;;;11.00;99.90;;;;;;5016110;28;20526;-69
2022/05/31 00:59:06;;;;;;;4.03;2.83;;;11.10;99.90;;;;;;5015629;28;20885;-70
2022/05/31 01:01:36;;;;;;;6.20;3.93;;;11.10;99.90;;;;;;5023918;28;20463;-69
2022/05/31 01:04:05;;;;;;;4.80;3.43;;;11.00;99.90;;;;;;5012232;28;20796;-69
2022/05/31 01:06:32;;;;;;;4.30;3.40;;;11.10;99.90;;;;;;5018281;28;20690;-70
2022/05/31 01:09:00;;;;;;;7.07;3.90;;;11.00;99.90;;;;;;5021315;28;20431;-70
2022/05/31 01:11:30;;;;;;;3.60;2.93;;;10.90;99.90;;;;;;5021118;28;20438;-70
2022/05/31 01:13:57;;;;;;;6.93;4.80;;;11.00;99.90;;;;;;5014925;28;20487;-70
2022/05/31 01:16:24;;;;;;;4.97;3.80;;;11.00;99.90;;;;;;5015244;28;20476;-70
2022/05/31 01:18:51;;;;;;;4.87;4.47;;;10.90;99.90;;;;;;5013938;28;20432;-70
2022/05/31 01:21:19;;;;;;;3.83;3.50;;;10.80;99.90;;;;;;5016755;28;20585;-70
2022/05/31 01:23:56;;;;;;;13.47;4.90;;;10.80;99.90;;;;;;5017796;28;20450;-69
2022/05/31 01:26:32;;;;;;;3.23;2.80;;;10.80;99.90;;;;;;5011714;28;20446;-70
2022/05/31 01:29:04;;;;;;;4.90;3.93;;;10.80;99.90;;;;;;5014664;28;20460;-70
2022/05/31 01:31:37;;;;;;;3.27;2.87;;;10.70;99.90;;;;;;5014637;28;20464;-70
2022/05/31 01:34:09;;;;;;;5.80;3.83;;;10.70;99.90;;;;;;5009449;28;20458;-70
2022/05/31 01:36:44;;;;;;;3.67;3.37;;;10.70;99.90;;;;;;5011483;28;20521;-70
2022/05/31 01:39:16;;;;;;;3.80;3.40;;;10.70;99.90;;;;;;5015568;28;20437;-70
2022/05/31 01:41:48;;;;;;;5.77;3.67;;;10.60;99.90;;;;;;5017957;28;20471;-69
2022/05/31 01:44:17;;;;;;;3.83;3.00;;;10.60;99.90;;;;;;5015296;28;20854;-70
2022/05/31 01:46:46;;;;;;;4.47;3.73;;;10.50;99.90;;;;;;5015690;28;20859;-70
2022/05/31 01:49:14;;;;;;;4.87;3.30;;;10.60;99.90;;;;;;5011592;28;20783;-70
2022/05/31 01:51:44;;;;;;;4.60;3.53;;;10.60;99.90;;;;;;5013264;28;20826;-70
2022/05/31 01:54:13;;;;;;;6.40;5.03;;;10.60;99.90;;;;;;5016157;28;20490;-70
2022/05/31 01:56:42;;;;;;;4.53;3.33;;;10.50;99.90;;;;;;5009830;28;20531;-70
2022/05/31 01:59:09;;;;;;;6.27;3.93;;;10.50;99.90;;;;;;5005462;28;20443;-70
2022/05/31 02:01:39;;;;;;;5.83;3.63;;;10.50;99.90;;;;;;5011471;28;20445;-70
2022/05/31 02:04:07;;;;;;;7.60;4.00;;;10.50;99.90;;;;;;5007589;28;20946;-70
2022/05/31 02:06:35;;;;;;;4.70;3.23;;;10.50;99.90;;;;;;5001971;28;20435;-70
2022/05/31 02:09:06;;;;;;;6.37;4.20;;;10.50;99.90;;;;;;5017645;28;20493;-70
2022/05/31 02:11:33;;;;;;;22.40;4.77;;;10.60;99.90;;;;;;5012795;28;20486;-70
2022/05/31 02:14:00;;;;;;;5.70;3.50;;;10.60;99.90;;;;;;5005632;28;20460;-70
2022/05/31 02:16:27;;;;;;;4.43;3.20;;;10.50;99.90;;;;;;5006698;28;20534;-70
2022/05/31 02:21:38;;;;;;;4.60;3.00;;;10.30;99.90;;;;;;5012942;28;20456;-70
2022/05/31 02:24:09;;;;;;;9.43;3.60;;;10.30;99.90;;;;;;5015237;28;20432;-69
2022/05/31 02:26:36;;;;;;;5.47;3.60;;;10.30;99.90;;;;;;5016083;28;21017;-69
2022/05/31 02:29:03;;;;;;;9.73;3.83;;;10.30;99.90;;;;;;5013020;28;20467;-70
2022/05/31 02:31:31;;;;;;;6.87;2.47;;;10.30;99.90;;;;;;5012268;28;20444;-70
2022/05/31 02:33:58;;;;;;;7.03;3.97;;;10.30;99.90;;;;;;5019194;28;20495;-70
2022/05/31 02:36:24;;;;;;;3.27;2.97;;;10.30;99.90;;;;;;5019389;28;20703;-71
2022/05/31 02:38:51;;;;;;;4.30;3.90;;;10.30;99.90;;;;;;5009983;28;20485;-70
2022/05/31 02:41:19;;;;;;;7.27;3.93;;;10.30;99.90;;;;;;5026403;28;21015;-70
2022/05/31 02:43:46;;;;;;;6.10;4.30;;;10.30;99.90;;;;;;5024848;28;20557;-69
2022/05/31 02:46:13;;;;;;;3.80;3.40;;;10.40;99.90;;;;;;5014069;28;20599;-69
2022/05/31 02:48:40;;;;;;;4.33;3.20;;;10.40;99.90;;;;;;5017840;28;20461;-72
2022/05/31 02:51:09;;;;;;;5.07;3.07;;;10.30;99.90;;;;;;5012333;28;20438;-71
2022/05/31 02:53:35;;;;;;;5.70;3.50;;;10.30;99.90;;;;;;5014149;28;20473;-70
2022/05/31 02:56:02;;;;;;;4.90;3.07;;;10.30;99.90;;;;;;5011909;28;20567;-70
2022/05/31 02:58:30;;;;;;;4.40;3.70;;;10.30;99.90;;;;;;5020349;28;20525;-71
2022/05/31 03:00:57;;;;;;;9.27;4.70;;;10.40;99.90;;;;;;5008664;28;20436;-71
2022/05/31 03:03:23;;;;;;;3.03;2.70;;;10.40;99.90;;;;;;5012804;22;20507;-74
2022/05/31 03:05:50;;;;;;;11.33;6.07;;;10.30;99.90;;;;;;4994060;28;20462;-72
2022/05/31 03:08:17;;;;;;;3.57;2.70;;;10.40;99.90;;;;;;4991149;28;20465;-72
2022/05/31 03:10:49;;;;;;;3.33;2.73;;;10.40;99.90;;;;;;4989789;28;20518;-72
2022/05/31 03:13:21;;;;;;;4.43;3.50;;;10.40;99.90;;;;;;4966905;28;20505;-72
2022/05/31 03:15:49;;;;;;;3.13;2.40;;;10.20;99.90;;;;;;4982528;28;20472;-72
2022/05/31 03:18:21;;;;;;;5.80;4.77;;;10.20;99.90;;;;;;4991165;28;20497;-72
2022/05/31 03:20:51;;;;;;;4.47;2.83;;;10.10;99.90;;;;;;4992432;28;20452;-71
2022/05/31 03:23:22;;;;;;;2.90;2.70;;;10.20;99.90;;;;;;4994818;28;20542;-72
2022/05/31 03:25:51;;;;;;;3.67;3.37;;;10.30;99.90;;;;;;4983086;28;20507;-74
2022/05/31 03:28:19;;;;;;;4.37;3.20;;;10.40;99.90;;;;;;4995702;28;20435;-72
2022/05/31 03:30:46;;;;;;;8.03;2.83;;;10.40;99.90;;;;;;4992980;28;20504;-71
2022/05/31 03:33:15;;;;;;;3.77;3.03;;;10.50;99.90;;;;;;4994482;28;20970;-72
2022/05/31 03:35:42;;;;;;;5.80;3.47;;;10.50;99.90;;;;;;4997060;28;20873;-72
2022/05/31 03:38:09;;;;;;;9.13;3.70;;;10.70;99.90;;;;;;5000071;28;20478;-73
2022/05/31 03:43:20;;;;;;;6.33;3.43;;;10.70;99.90;;;;;;5001528;28;20573;-72
2022/05/31 03:45:47;;;;;;;3.07;2.77;;;10.80;99.90;;;;;;5001587;28;20468;-72
2022/05/31 03:48:15;;;;;;;9.30;4.20;;;10.70;99.90;;;;;;4990530;28;20459;-73
2022/05/31 03:50:42;;;;;;;4.00;3.57;;;10.70;99.90;;;;;;5003499;28;20467;-73
2022/05/31 03:53:11;;;;;;;3.70;3.37;;;10.80;99.90;;;;;;5001389;28;21031;-71
2022/05/31 03:55:38;;;;;;;8.60;4.40;;;10.80;99.90;;;;;;5000466;28;21011;-71
2022/05/31 03:58:05;;;;;;;6.03;4.43;;;10.80;99.90;;;;;;4992453;28;20495;-71
2022/05/31 04:00:32;;;;;;;8.50;3.87;;;10.80;99.90;;;;;;4994040;28;20463;-73
2022/05/31 04:02:59;;;;;;;4.50;2.60;;;10.90;99.90;;;;;;4987209;28;20542;-71
2022/05/31 04:05:27;;;;;;;6.07;5.07;;;10.90;99.90;;;;;;4982104;28;21184;-71
2022/05/31 04:07:56;;;;;;;4.50;3.07;;;10.90;99.90;;;;;;4998858;28;21178;-73
2022/05/31 04:10:22;;;;;;;6.13;4.53;;;10.90;99.90;;;;;;4996424;28;20428;-73
2022/05/31 04:12:49;;;;;;;6.83;4.07;;;11.00;99.90;;;;;;4991598;28;20451;-72
2022/05/31 04:15:16;;;;;;;11.03;4.00;;;11.00;99.90;;;;;;4986916;28;21005;-72
2022/05/31 04:17:43;;;;;;;10.43;4.20;;;11.10;99.90;;;;;;4992910;28;25247;-73
2022/05/31 04:20:10;;;;;;;5.37;4.23;;;11.10;99.90;;;;;;4999442;28;20468;-72
2022/05/31 04:22:38;;;;;;;5.77;3.80;;;11.20;99.90;;;;;;4995070;28;20465;-72
2022/05/31 04:25:06;;;;;;;4.13;2.90;;;11.20;99.90;;;;;;4992118;28;20472;-72
2022/05/31 04:27:32;;;;;;;3.67;3.23;;;11.20;99.90;;;;;;5002953;28;20471;-73
2022/05/31 04:29:59;;;;;;;5.23;3.60;;;11.30;99.90;;;;;;4995533;28;20433;-72
2022/05/31 04:32:26;;;;;;;5.30;3.20;;;11.20;99.90;;;;;;5003259;28;20565;-73
2022/05/31 04:34:53;;;;;;;4.00;3.40;;;11.20;99.90;;;;;;4999970;28;20481;-72
2022/05/31 04:37:20;;;;;;;5.73;3.37;;;11.20;99.90;;;;;;4994151;28;20428;-71
2022/05/31 04:39:48;;;;;;;3.77;3.13;;;11.20;99.90;;;;;;4997465;28;20457;-72
2022/05/31 04:42:16;;;;;;;3.40;3.10;;;11.20;99.90;;;;;;4994667;28;20482;-75
2022/05/31 04:44:42;;;;;;;7.30;3.17;;;11.20;99.90;;;;;;4995508;28;20524;-71
2022/05/31 04:47:09;;;;;;;9.80;2.70;;;11.20;99.90;;;;;;4996040;28;20485;-70
2022/05/31 04:49:36;;;;;;;4.10;3.40;;;11.10;99.90;;;;;;5000370;28;20484;-70
2022/05/31 04:52:03;;;;;;;3.90;3.50;;;11.10;99.90;;;;;;4997037;28;21901;-71
2022/05/31 04:54:30;;;;;;;4.00;3.20;;;11.10;99.90;;;;;;4999142;28;20461;-73
2022/05/31 04:57:01;;;;;;;5.70;3.37;;;11.20;99.90;;;;;;4998324;28;20434;-72
2022/05/31 04:59:28;;;;;;;7.43;4.37;;;11.20;99.90;;;;;;4993378;28;20954;-71
2022/05/31 05:01:54;;;;;;;3.60;3.17;;;11.30;99.90;;;;;;4981091;28;20441;-72
2022/05/31 05:04:21;;;;;;;5.60;5.07;;;11.10;99.90;;;;;;5000021;28;20544;-70
2022/05/31 05:06:48;;;;;;;5.30;3.30;;;11.20;99.90;;;;;;4998385;28;20519;-71
2022/05/31 05:09:14;;;;;;;6.93;4.50;;;11.20;99.90;;;;;;4997980;28;20450;-71
2022/05/31 05:11:41;;;;;;;5.07;3.90;;;11.30;99.90;;;;;;5005358;28;20449;-71
2022/05/31 05:14:09;;;;;;;6.40;3.80;;;11.30;99.90;;;;;;5003065;28;20493;-72
2022/05/31 05:16:36;;;;;;;7.90;4.17;;;11.30;99.90;;;;;;5006248;28;20473;-71
2022/05/31 05:19:03;;;;;;;6.10;3.67;;;11.30;99.90;;;;;;4997024;28;20472;-72
2022/05/31 05:21:30;;;;;;;4.97;3.13;;;11.50;99.90;;;;;;5004096;28;20510;-71
2022/05/31 05:23:56;;;;;;;4.40;4.00;;;11.50;99.90;;;;;;5002349;28;20997;-71
2022/05/31 05:26:23;;;;;;;6.13;3.77;;;11.60;99.90;;;;;;5006052;28;20532;-72
2022/05/31 05:31:53;;;;;;;4.77;3.07;;;11.70;99.90;;;;;;4947436;28;20487;-71
2022/05/31 05:34:20;;;;;;;11.43;2.93;;;11.80;99.90;;;;;;4946209;28;20857;-71
2022/05/31 05:36:46;;;;;;;8.07;3.90;;;11.70;99.90;;;;;;4963332;28;20464;-71
2022/05/31 05:39:13;;;;;;;8.40;3.80;;;11.60;99.90;;;;;;4999055;28;20462;-71
2022/05/31 05:41:41;;;;;;;5.43;3.73;;;11.60;99.90;;;;;;5002447;28;20443;-71
2022/05/31 05:44:07;;;;;;;3.50;2.70;;;11.50;99.90;;;;;;5009402;28;20565;-72
2022/05/31 05:46:34;;;;;;;3.97;3.27;;;11.50;99.90;;;;;;5000632;28;21021;-69
2022/05/31 05:49:02;;;;;;;4.90;4.40;;;11.60;99.90;;;;;;5003954;28;21037;-71
2022/05/31 05:51:31;;;;;;;8.40;3.73;;;11.70;99.90;;;;;;4999228;28;20552;-70
2022/05/31 05:53:58;;;;;;;8.67;4.30;;;11.70;99.90;;;;;;4998256;28;20487;-71
2022/05/31 05:56:26;;;;;;;5.87;3.40;;;11.80;99.90;;;;;;4995695;28;20458;-71
2022/05/31 05:58:52;;;;;;;7.17;4.10;;;11.80;99.90;;;;;;5007815;28;20518;-71
2022/05/31 06:01:22;;;;;;;6.77;3.70;;;11.90;99.90;;;;;;5011001;28;20836;-71
2022/05/31 06:03:53;;;;;;;5.63;3.50;;;11.80;99.90;;;;;;4991978;28;20540;-71
2022/05/31 06:06:24;;;;;;;4.03;3.63;;;11.80;99.90;;;;;;4998189;28;21223;-71
2022/05/31 06:08:56;;;;;;;6.47;5.20;;;11.80;99.90;;;;;;4996028;28;20433;-71
2022/05/31 06:11:26;;;;;;;5.97;3.57;;;11.90;99.90;;;;;;4997951;28;20463;-71
2022/05/31 06:13:58;;;;;;;4.70;3.47;;;11.80;99.90;;;;;;5007166;28;20567;-70
2022/05/31 06:16:29;;;;;;;5.90;3.17;;;11.90;99.90;;;;;;4999791;28;20473;-71
2022/05/31 06:19:02;;;;;;;6.80;5.03;;;11.90;99.90;;;;;;5005646;28;20504;-71
2022/05/31 06:21:30;;;;;;;4.50;3.30;;;11.70;99.90;;;;;;4998017;28;20510;-70
2022/05/31 06:23:58;;;;;;;8.00;3.40;;;11.50;99.90;;;;;;4996112;28;20453;-70
2022/05/31 06:26:25;;;;;;;6.83;3.43;;;11.40;99.90;;;;;;5009269;28;20454;-72
2022/05/31 06:28:51;;;;;;;8.70;3.33;;;11.40;99.90;;;;;;5005600;28;20458;-72
2022/05/31 06:31:18;;;;;;;7.20;3.67;;;11.60;99.90;;;;;;5002431;28;20521;-71
2022/05/31 06:33:45;;;;;;;5.50;3.60;;;11.80;99.90;;;;;;4993695;28;20520;-71
2022/05/31 06:36:14;;;;;;;5.03;4.33;;;12.10;99.90;;;;;;4999718;28;20472;-72
2022/05/31 06:38:42;;;;;;;6.30;3.77;;;12.20;99.90;;;;;;4996129;28;20463;-71
2022/05/31 06:41:08;;;;;;;3.53;3.10;;;12.10;99.90;;;;;;5006513;28;20922;-71
2022/05/31 06:43:35;;;;;;;7.57;3.80;;;12.00;99.90;;;;;;5005031;28;20866;-70
2022/05/31 06:46:05;;;;;;;3.50;3.13;;;11.90;99.90;;;;;;5003239;28;20455;-71
2022/05/31 06:48:32;;;;;;;9.10;3.80;;;12.10;99.90;;;;;;4997296;28;20761;-72
2022/05/31 06:50:59;;;;;;;4.73;3.07;;;12.30;99.90;;;;;;4998559;28;21022;-71
2022/05/31 06:58:58;;;;;;;4.50;3.93;;;12.60;99.90;;;;;;4998473;28;20436;-73
2022/05/31 07:01:30;;;;;;;5.10;3.23;;;12.70;99.90;;;;;;5003432;28;20570;-72
2022/05/31 07:03:58;;;;;;;10.83;3.47;;;12.80;99.90;;;;;;5004588;28;20745;-71
2022/05/31 07:06:24;;;;;;;5.70;3.73;;;12.80;99.90;;;;;;4998195;28;20504;-72
2022/05/31 07:08:51;;;;;;;7.70;3.73;;;13.00;99.90;;;;;;4996921;28;20476;-72
2022/05/31 07:11:19;;;;;;;5.97;4.30;;;13.10;99.90;;;;;;5004257;28;20462;-71
2022/05/31 07:13:46;;;;;;;12.63;3.47;;;13.20;99.90;;;;;;5000989;28;20552;-71
2022/05/31 07:16:12;;;;;;;6.20;4.03;;;13.30;99.90;;;;;;5008368;28;20958;-71
2022/05/31 07:18:39;;;;;;;7.40;4.40;;;13.50;99.90;;;;;;4997862;28;20649;-71
2022/05/31 07:21:06;;;;;;;3.73;3.17;;;13.50;99.90;;;;;;4999553;28;20459;-72
2022/05/31 07:23:33;;;;;;;5.60;4.07;;;13.40;99.90;;;;;;4995971;28;21054;-71
2022/05/31 07:26:00;;;;;;;3.90;3.40;;;13.30;99.90;;;;;;4988908;28;20959;-71
2022/05/31 07:28:28;;;;;;;7.03;3.83;;;13.20;99.90;;;;;;5000226;28;20476;-71
2022/05/31 07:30:55;;;;;;;4.70;3.50;;;13.10;99.90;;;;;;4997610;28;20468;-71
2022/05/31 07:33:22;;;;;;;7.27;3.13;;;13.00;99.90;;;;;;4999350;28;20477;-72
2022/05/31 07:35:49;;;;;;;4.30;3.60;;;13.00;99.90;;;;;;4994550;28;20595;-71
2022/05/31 07:38:16;;;;;;;6.00;3.63;;;13.10;99.90;;;;;;4998719;28;20556;-73
2022/05/31 07:40:44;;;;;;;4.57;3.53;;;13.20;99.90;;;;;;4999867;28;20462;-72
2022/05/31 07:43:11;;;;;;;6.83;2.77;;;13.20;99.90;;;;;;5001797;28;20521;-71
2022/05/31 07:45:39;;;;;;;3.83;3.53;;;13.10;99.90;;;;;;5002570;28;20531;-72
2022/05/31 07:48:07;;;;;;;9.80;3.00;;;13.00;99.90;;;;;;5000109;28;20443;-71
2022/05/31 07:50:34;;;;;;;5.40;3.57;;;13.00;99.90;;;;;;4996222;28;20578;-71
2022/05/31 07:53:01;;;;;;;8.37;4.77;;;13.00;99.90;;;;;;4995365;28;20487;-71
2022/05/31 07:55:28;;;;;;;5.70;3.70;;;13.00;99.90;;;;;;5001854;28;20872;-72
2022/05/31 08:00:41;;;;;;;4.17;3.70;;;13.00;99.90;;;;;;4996825;28;20455;-71
2022/05/31 08:03:09;;;;;;;7.70;4.93;;;13.00;99.90;;;;;;4997465;28;20882;-72
2022/05/31 08:05:37;;;;;;;4.20;3.57;;;13.00;99.90;;;;;;4997802;28;20473;-71
2022/05/31 08:08:05;;;;;;;7.10;4.30;;;13.10;99.90;;;;;;4989384;28;20541;-72
2022/05/31 08:10:33;;;;;;;6.07;4.63;;;13.10;99.90;;;;;;5005992;28;20474;-71
2022/05/31 08:12:59;;;;;;;10.37;4.07;;;13.20;99.90;;;;;;5003545;28;20497;-72
2022/05/31 08:15:26;;;;;;;7.30;4.03;;;13.30;99.90;;;;;;4997382;28;20537;-73
2022/05/31 08:17:54;;;;;;;7.53;4.20;;;13.40;99.90;;;;;;4991278;28;20437;-72
2022/05/31 08:20:21;;;;;;;6.73;5.03;;;13.10;99.90;;;;;;5003119;28;20437;-72
2022/05/31 08:22:48;;;;;;;4.50;4.10;;;13.10;99.90;;;;;;5001755;28;20536;-73
2022/05/31 08:25:16;;;;;;;6.67;4.47;;;13.10;99.90;;;;;;4996117;28;20482;-73
2022/05/31 08:27:42;;;;;;;5.33;3.50;;;13.10;99.90;;;;;;4993094;28;20465;-73
2022/05/31 08:30:09;;;;;;;9.37;3.90;;;13.10;99.90;;;;;;4992557;28;20462;-72
2022/05/31 08:32:36;;;;;;;5.60;4.40;;;13.10;99.90;;;;;;5001119;28;20461;-72
2022/05/31 08:35:06;;;;;;;6.93;4.07;;;13.10;99.90;;;;;;4998395;28;20487;-72
2022/05/31 08:37:33;;;;;;;6.60;4.40;;;13.20;99.90;;;;;;5002250;28;20851;-70
2022/05/31 08:40:00;;;;;;;10.30;3.90;;;13.30;99.90;;;;;;5002017;28;20431;-71
2022/05/31 08:42:42;;;;;;;6.90;5.00;;;13.20;99.90;;;;;;4998180;28;20998;-73
2022/05/31 08:45:13;;;;;;;4.70;2.83;;;13.30;99.90;;;;;;4989367;28;20457;-72
2022/05/31 08:47:48;;;;;;;6.53;4.20;;;13.50;99.90;;;;;;5002752;28;20453;-72
2022/05/31 08:53:17;;;;;;;6.00;3.83;;;14.10;99.90;;;;;;4996649;28;20473;-71
2022/05/31 08:58:36;;;;;;;7.07;3.90;;;14.70;99.90;;;;;;4998353;28;20415;-73
2022/05/31 09:01:04;;;;;;;4.03;3.30;;;14.90;99.90;;;;;;4993619;28;20470;-71
2022/05/31 09:03:35;;;;;;;4.83;3.53;;;15.20;99.90;;;;;;5007922;22;21029;-68
2022/05/31 09:06:07;;;;;;;6.27;2.77;;;15.30;99.90;;;;;;5018942;28;20971;-68
2022/05/31 09:08:38;;;;;;;4.00;3.00;;;15.80;99.90;;;;;;5022059;28;20463;-69
2022/05/31 09:11:12;;;;;;;6.37;3.40;;;16.40;99.90;;;;;;5014546;28;20457;-69
2022/05/31 09:13:44;;;;;;;6.20;3.70;;;16.90;99.90;;;;;;5018091;28;20534;-69
2022/05/31 09:16:17;;;;;;;3.60;3.07;;;18.10;99.90;;;;;;5022671;28;20489;-69
2022/05/31 09:18:49;;;;;;;4.60;3.47;;;17.90;99.90;;;;;;5022011;28;20463;-69
2022/05/31 09:21:25;;;;;;;5.53;3.70;;;16.80;99.90;;;;;;5024906;28;20465;-69
2022/05/31 09:23:53;;;;;;;4.03;3.30;;;16.20;99.90;;;;;;5022065;28;20993;-68
2022/05/31 09:26:36;;;;;;;5.17;3.13;;;15.70;99.90;;;;;;5025428;28;20527;-69
2022/05/31 09:29:10;;;;;;;4.90;3.43;;;15.50;99.90;;;;;;5016117;28;20456;-68
2022/05/31 09:31:46;;;;;;;7.83;3.83;;;15.40;99.90;;;;;;5019280;28;20460;-69
2022/05/31 09:34:32;;;;;;;4.00;3.37;;;15.20;99.90;;;;;;5016112;28;20515;-69
2022/05/31 09:37:08;;;;;;;5.17;3.40;;;15.10;99.90;;;;;;5019996;28;20983;-69
2022/05/31 09:39:41;;;;;;;4.10;3.20;;;15.10;99.90;;;;;;5026305;28;20518;-69
2022/05/31 09:42:16;;;;;;;5.57;3.23;;;16.10;99.90;;;;;;5024163;28;20462;-69
2022/05/31 09:44:45;;;;;;;3.50;2.80;;;17.60;99.90;;;;;;5019807;28;20489;-70
2022/05/31 09:47:17;;;;;;;4.50;2.83;;;18.90;99.90;;;;;;5017644;28;20508;-70
2022/05/31 09:49:46;;;;;;;3.60;2.67;;;19.50;99.90;;;;;;5018249;28;20519;-69
2022/05/31 09:52:18;;;;;;;7.70;3.23;;;19.30;99.90;;;;;;5012436;28;20465;-70
2022/05/31 09:57:59;;;;;;;3.77;2.90;;;18.80;99.90;;;;;;5022578;28;20714;-69
2022/05/31 10:00:26;;;;;;;6.83;2.67;;;17.80;99.90;;;;;;5009730;28;20469;-69
2022/05/31 10:03:12;;;;;;;9.37;3.30;;;18.30;99.90;;;;;;5020980;28;20459;-70
2022/05/31 10:05:40;;;;;;;3.53;3.03;;;18.50;99.90;;;;;;5021528;28;20954;-69
2022/05/31 10:08:16;;;;;;;4.93;2.80;;;19.40;99.90;;;;;;5023525;28;20491;-70
2022/05/31 10:10:47;;;;;;;3.20;2.87;;;20.30;99.90;;;;;;5017297;28;20465;-69
2022/05/31 10:13:35;;;;;;;4.27;3.50;;;20.10;99.90;;;;;;5027462;28;21017;-69
2022/05/31 10:16:11;;;;;;;3.27;2.97;;;20.40;99.90;;;;;;5030541;28;20480;-68
2022/05/31 10:18:48;;;;;;;4.33;3.13;;;20.70;99.90;;;;;;5017625;28;20503;-69
2022/05/31 10:21:31;;;;;;;5.13;3.00;;;20.70;99.90;;;;;;5021979;28;20524;-70
2022/05/31 10:24:07;;;;;;;3.70;2.53;;;20.60;99.90;;;;;;5024030;28;20992;-70
2022/05/31 10:26:38;;;;;;;3.50;3.20;;;19.90;99.90;;;;;;5019754;28;20457;-69
2022/05/31 10:29:12;;;;;;;5.57;3.10;;;19.40;99.90;;;;;;5022361;28;20461;-70
2022/05/31 10:31:41;;;;;;;6.80;4.13;;;19.00;99.90;;;;;;5026892;28;20457;-69
2022/05/31 10:34:31;;;;;;;5.83;3.73;;;18.60;99.90;;;;;;5025464;28;20547;-69
2022/05/31 10:36:59;;;;;;;6.63;3.20;;;18.10;99.90;;;;;;5026540;28;20507;-70
2022/05/31 10:39:30;;;;;;;4.47;3.70;;;17.70;99.90;;;;;;5021587;28;20468;-70
2022/05/31 10:42:00;;;;;;;5.37;3.30;;;17.60;99.90;;;;;;5020367;28;20460;-70
2022/05/31 10:44:31;;;;;;;7.97;4.83;;;17.60;99.90;;;;;;5016971;28;20514;-70
2022/05/31 10:47:04;;;;;;;5.77;4.03;;;17.80;99.90;;;;;;5022383;28;20836;-69
2022/05/31 10:49:32;;;;;;;5.90;4.40;;;17.40;99.90;;;;;;5022649;28;20465;-70
2022/05/31 10:52:07;;;;;;;8.67;4.70;;;17.50;99.90;;;;;;5020942;28;20467;-69
2022/05/31 10:54:48;;;;;;;5.60;3.80;;;17.80;99.90;;;;;;5010985;28;20535;-69
2022/05/31 10:57:29;;;;;;;6.07;3.23;;;18.00;99.90;;;;;;5016070;28;20458;-70
2022/05/31 11:00:05;;;;;;;4.30;3.90;;;18.00;99.90;;;;;;5017799;28;20545;-70
2022/05/31 11:02:59;;;;;;;9.03;4.30;;;18.10;99.90;;;;;;5017611;28;20544;-70
2022/05/31 11:05:38;;;;;;;8.00;4.90;;;18.20;99.90;;;;;;5023387;28;20448;-70
2022/05/31 11:11:33;;;;;;;4.33;3.93;;;18.40;99.90;;;;;;5012575;28;20452;-70
2022/05/31 11:14:25;;;;;;;5.30;3.63;;;19.90;99.90;;;;;;5017522;28;20539;-70
2022/05/31 11:17:03;;;;;;;3.03;2.73;;;22.30;99.90;;;;;;5014702;28;20488;-71
2022/05/31 11:19:39;;;;;;;6.07;3.20;;;22.90;99.90;;;;;;5016797;28;20824;-70
2022/05/31 11:22:36;;;;;;;2.00;1.67;;;23.50;99.90;;;;;;5018944;28;20956;-70
2022/05/31 11:25:33;;;;;;;5.00;3.67;;;24.20;97.30;;;;;;5018871;28;21191;-70
2022/05/31 11:28:20;;;;;;;4.97;2.93;;;24.10;96.60;;;;;;5013413;28;21082;-69
2022/05/31 11:31:09;;;;;;;4.40;3.67;;;24.30;96.80;;;;;;5016085;28;20507;-69
2022/05/31 11:33:54;;;;;;;3.80;2.60;;;24.30;96.40;;;;;;5015976;28;21012;-69
2022/05/31 11:36:27;;;;;;;5.20;3.10;;;24.50;92.90;;;;;;5016999;28;20966;-70
2022/05/31 11:39:03;;;;;;;4.70;3.13;;;24.30;93.30;;;;;;5014182;28;20516;-69
2022/05/31 11:41:37;;;;;;;3.90;2.43;;;25.50;91.90;;;;;;5021650;28;20452;-70
2022/05/31 11:44:36;;;;;;;2.93;2.37;;;26.80;86.70;;;;;;5016481;28;20619;-70
2022/05/31 11:47:11;;;;;;;7.00;2.80;;;25.70;83.00;;;;;;5017103;28;20457;-69
2022/05/31 11:49:47;;;;;;;4.60;3.20;;;25.70;84.90;;;;;;5024839;28;20874;-69
2022/05/31 11:52:26;;;;;;;5.53;4.57;;;24.80;80.10;;;;;;5017140;28;20812;-68
2022/05/31 11:55:29;;;;;;;3.30;3.00;;;22.80;84.60;;;;;;5012192;28;20539;-68
2022/05/31 11:58:10;;;;;;;2.60;2.20;;;22.60;88.30;;;;;;5010621;28;20856;-70
2022/05/31 12:00:44;;;;;;;2.60;2.40;;;23.10;90.10;;;;;;5009937;28;20492;-70
2022/05/31 12:03:18;;;;;;;4.37;3.00;;;24.50;89.80;;;;;;5014708;28;20546;-70
2022/05/31 12:05:49;;;;;;;5.03;1.53;;;25.80;85.80;;;;;;5016147;28;20465;-70
2022/05/31 12:08:20;;;;;;;3.33;2.23;;;26.10;79.10;;;;;;5012746;28;20540;-70
2022/05/31 12:10:52;;;;;;;3.20;2.23;;;25.60;78.80;;;;;;5020576;28;20602;-70
2022/05/31 12:13:20;;;;;;;5.87;2.73;;;26.20;79.90;;;;;;5017690;28;20508;-70
2022/05/31 12:15:51;;;;;;;2.80;2.40;;;26.80;76.90;;;;;;5017498;28;20536;-69
2022/05/31 12:18:23;;;;;;;3.13;2.20;;;27.50;76.40;;;;;;5022534;28;20914;-69
2022/05/31 12:20:56;;;;;;;2.93;2.17;;;26.70;76.00;;;;;;5017459;28;20475;-68
2022/05/31 12:23:32;;;;;;;3.70;2.67;;;26.90;76.70;;;;;;5016677;28;20489;-69
2022/05/31 12:26:00;;;;;;;3.67;2.03;;;27.00;76.80;;;;;;5014228;28;20820;-70
2022/05/31 12:28:31;;;;;;;2.60;2.33;;;27.60;74.70;;;;;;5014213;28;20457;-70
2022/05/31 12:31:05;;;;;;;4.80;3.00;;;28.10;74.40;;;;;;5010926;28;21058;-71
2022/05/31 12:33:42;;;;;;;4.33;2.83;;;28.40;68.90;;;;;;5016689;28;21066;-70
2022/05/31 12:36:10;;;;;;;3.10;2.50;;;28.60;72.20;;;;;;5015881;28;20574;-69
2022/05/31 12:39:21;;;;;;;3.63;2.87;;;29.40;68.90;;;;;;5015309;28;20480;-71
2022/05/31 12:41:50;;;;;;;5.10;3.10;;;27.90;66.80;;;;;;4962834;28;20987;-70
2022/05/31 12:44:29;;;;;;;2.77;2.53;;;28.30;67.50;;;;;;4955947;28;21126;-70
2022/05/31 12:47:12;;;;;;;3.03;2.70;;;27.80;66.90;;;;;;4998542;28;20815;-70
2022/05/31 12:49:53;;;;;;;3.33;3.03;;;28.30;66.70;;;;;;5021777;28;20972;-70
2022/05/31 12:55:48;;;;;;;3.83;2.50;;;29.70;67.70;;;;;;5019885;28;20492;-71
2022/05/31 12:58:31;;;;;;;3.20;2.63;;;28.60;60.70;;;;;;5022453;28;20469;-69
2022/05/31 13:01:00;;;;;;;4.60;3.30;;;28.30;61.50;;;;;;5018622;28;20466;-70
2022/05/31 13:03:57;;;;;;;6.40;2.70;;;28.80;62.50;;;;;;5023321;28;20564;-69
2022/05/31 13:06:34;;;;;;;4.57;2.47;;;29.10;61.20;;;;;;5027391;28;20518;-70
2022/05/31 13:09:03;;;;;;;2.53;2.30;;;29.40;59.80;;;;;;5015349;28;20468;-69
2022/05/31 13:20:11;;;;;;;2.40;2.17;;;29.40;59.40;;;;;;5015658;28;20495;-70
2022/05/31 13:22:42;;;;;;;4.90;2.10;;;28.60;57.50;;;;;;5018382;28;20489;-70
2022/05/31 13:25:20;;;;;;;2.87;2.67;;;28.80;59.70;;;;;;5018925;28;20481;-70
2022/05/31 13:27:51;;;;;;;3.03;2.70;;;28.30;58.60;;;;;;5026690;28;20880;-70
2022/05/31 13:30:21;;;;;;;4.93;2.67;;;29.00;59.70;;;;;;5020210;28;20522;-69
2022/05/31 13:32:48;;;;;;;4.60;2.70;;;27.60;55.10;;;;;;5021826;28;20461;-70
2022/05/31 13:35:20;;;;;;;2.50;1.93;;;27.90;56.20;;;;;;5017080;28;20465;-70
2022/05/31 13:38:05;;;;;;;6.20;2.80;;;28.90;56.50;;;;;;5017893;28;20512;-69
2022/05/31 13:40:35;;;;;;;2.37;2.17;;;29.50;54.30;;;;;;5014872;28;20510;-69
2022/05/31 13:43:04;;;;;;;4.20;2.13;;;28.80;53.90;;;;;;5024697;28;20457;-70
2022/05/31 13:45:33;;;;;;;2.97;2.30;;;27.50;52.40;;;;;;5026537;28;20910;-69